Time;durP1;ratioP1;P1;durP2;ratioP2;P2;SDS_P1;SDS_P2;PMS_P1;PMS_P2;Temp;Humidity;BMP_temperature;BMP_pressure;BME280_temperature;BME280_humidity;BME280_pressure;Samples;Min_cycle;Max_cycle;Signal;HPM_P1;HPM_P2
2023/01/15 00:01:43;;;;;;;3.88;1.27;;;;;;;6.16;91.17;99803.69;6158589;23;20092;-77
2023/01/15 00:04:10;;;;;;;9.98;1.70;;;;;;;6.16;91.13;99799.13;6158534;23;20014;-77
2023/01/15 00:06:40;;;;;;;9.82;1.42;;;;;;;6.15;90.48;99805.59;6158441;23;20029;-76
2023/01/15 00:09:12;;;;;;;5.78;1.20;;;;;;;6.16;90.86;99807.06;6156658;23;20018;-77
2023/01/15 00:11:38;;;;;;;6.43;1.60;;;;;;;6.17;90.99;99805.16;6158804;23;20093;-77
2023/01/15 00:14:05;;;;;;;5.15;1.48;;;;;;;6.14;90.69;99814.69;6158305;23;20448;-76
2023/01/15 00:16:31;;;;;;;5.85;1.30;;;;;;;6.13;91.02;99807.91;6132937;23;20022;-77
2023/01/15 00:19:00;;;;;;;11.57;1.75;;;;;;;6.12;91.05;99808.34;6157829;23;20021;-76
2023/01/15 00:21:28;;;;;;;4.97;1.33;;;;;;;6.11;91.00;99812.16;6159047;23;20018;-76
2023/01/15 00:29:26;;;;;;;9.45;1.65;;;;;;;6.07;91.50;99809.63;6157449;23;20022;-76
2023/01/15 00:32:02;;;;;;;8.40;2.05;;;;;;;6.07;91.78;99799.06;6158376;23;20018;-77
2023/01/15 00:34:29;;;;;;;6.80;1.23;;;;;;;6.05;91.64;99798.75;6132667;23;20017;-77
2023/01/15 00:36:57;;;;;;;6.70;1.20;;;;;;;6.03;92.00;99799.19;6131945;23;20132;-76
2023/01/15 00:39:23;;;;;;;6.88;1.30;;;;;;;6.04;92.12;99805.22;6158844;23;20024;-77
2023/01/15 00:41:51;;;;;;;10.48;1.45;;;;;;;6.03;91.88;99801.09;6157879;23;20018;-76
2023/01/15 00:44:19;;;;;;;6.43;1.15;;;;;;;6.01;92.32;99801.53;6159063;23;20415;-76
2023/01/15 00:46:45;;;;;;;4.97;1.60;;;;;;;6.00;92.44;99796.66;6132171;23;20125;-77
2023/01/15 00:49:13;;;;;;;11.05;1.73;;;;;;;6.00;93.08;99794.75;6158452;23;20441;-76
2023/01/15 00:51:39;;;;;;;4.82;1.50;;;;;;;6.00;93.27;99794.03;6131999;23;20022;-76
2023/01/15 00:54:06;;;;;;;7.18;1.40;;;;;;;6.00;93.24;99804.59;6158335;23;20334;-76
2023/01/15 00:56:33;;;;;;;10.43;1.52;;;;;;;6.01;93.11;99803.44;6132115;23;20498;-76
2023/01/15 00:59:01;;;;;;;4.97;1.30;;;;;;;6.01;93.33;99800.78;6158180;23;20022;-76
2023/01/15 01:01:28;;;;;;;8.48;1.58;;;;;;;5.99;92.94;99803.88;6158750;23;20021;-76
2023/01/15 01:03:55;;;;;;;12.30;1.67;;;;;;;5.99;93.27;99808.44;6131761;23;20452;-77
2023/01/15 01:06:22;;;;;;;7.35;1.42;;;;;;;5.99;93.02;99803.16;6158828;23;20085;-77
2023/01/15 01:08:49;;;;;;;9.27;1.42;;;;;;;5.98;92.93;99806.94;6157918;23;20089;-75
2023/01/15 01:11:18;;;;;;;5.60;1.30;;;;;;;5.98;92.80;99804.31;6158067;23;20018;-76
2023/01/15 01:13:45;;;;;;;6.82;1.80;;;;;;;5.97;93.03;99792.28;6158463;23;20420;-76
2023/01/15 01:16:36;;;;;;;7.20;1.27;;;;;;;5.98;93.20;99793.75;6158176;23;20014;-75
2023/01/15 01:19:09;;;;;;;9.35;2.28;;;;;;;5.97;92.80;99800.19;6108801;23;20056;-76
2023/01/15 01:21:37;;;;;;;8.93;1.55;;;;;;;5.97;92.45;99797.56;6133237;23;20105;-76
2023/01/15 01:24:05;;;;;;;10.52;2.42;;;;;;;5.97;92.98;99800.94;6108569;23;20471;-76
2023/01/15 01:26:33;;;;;;;10.55;1.33;;;;;;;5.94;92.96;99804.44;6159172;23;20014;-75
2023/01/15 01:29:00;;;;;;;7.10;1.25;;;;;;;5.94;93.09;99803.69;6159567;23;20018;-76
2023/01/15 01:31:26;;;;;;;8.48;1.83;;;;;;;5.91;92.84;99802.66;6159572;23;20021;-76
2023/01/15 01:33:56;;;;;;;14.38;1.98;;;;;;;5.91;92.79;99805.28;6157697;23;20025;-76
2023/01/15 01:36:33;;;;;;;7.88;1.95;;;;;;;5.90;93.12;99816.28;6159716;23;20025;-76
2023/01/15 01:39:00;;;;;;;11.32;1.90;;;;;;;5.89;92.87;99804.25;6159521;23;20018;-76
2023/01/15 01:41:28;;;;;;;5.57;1.50;;;;;;;5.88;92.76;99824.59;6159202;23;20462;-75
2023/01/15 01:44:03;;;;;;;17.30;2.30;;;;;;;5.88;92.69;99813.31;6157481;23;20457;-76
2023/01/15 01:46:32;;;;;;;9.18;1.50;;;;;;;5.88;92.71;99816.69;6159906;23;20423;-76
2023/01/15 01:49:03;;;;;;;9.10;2.08;;;;;;;5.89;92.24;99820.09;6159447;23;20527;-76
2023/01/15 01:51:37;;;;;;;8.03;1.60;;;;;;;5.89;92.48;99822.72;6159853;23;20014;-76
2023/01/15 01:54:04;;;;;;;10.02;1.83;;;;;;;5.87;92.03;99828.41;6132641;23;20308;-76
2023/01/15 01:56:34;;;;;;;7.35;1.73;;;;;;;5.86;92.07;99826.94;6133468;23;20022;-76
2023/01/15 01:59:03;;;;;;;9.75;1.55;;;;;;;5.85;91.84;99832.66;6108509;23;20524;-76
2023/01/15 02:01:30;;;;;;;12.32;1.85;;;;;;;5.83;91.66;99817.22;6159449;23;20433;-76
2023/01/15 02:03:57;;;;;;;7.38;1.40;;;;;;;5.82;91.21;99831.59;6132681;23;20459;-76
2023/01/15 02:06:25;;;;;;;6.97;1.52;;;;;;;5.82;91.22;99828.22;6133280;23;20452;-76
2023/01/15 02:08:52;;;;;;;12.18;1.38;;;;;;;5.81;91.30;99819.56;6131455;23;20026;-76
2023/01/15 02:11:21;;;;;;;8.32;1.50;;;;;;;5.79;90.93;99815.88;6160050;23;20481;-77
2023/01/15 02:13:59;;;;;;;7.45;1.40;;;;;;;5.79;91.39;99821.16;6132369;23;20022;-77
2023/01/15 02:16:50;;;;;;;14.32;1.73;;;;;;;5.79;90.86;99818.50;6157995;23;20052;-76
2023/01/15 02:19:44;;;;;;;6.35;1.25;;;;;;;5.80;91.08;99806.78;6108869;23;20026;-76
2023/01/15 02:22:29;;;;;;;6.05;1.02;;;;;;;5.78;91.32;99814.38;6159637;23;20024;-76
2023/01/15 02:25:17;;;;;;;8.50;1.25;;;;;;;5.76;90.75;99812.19;6107751;23;20401;-76
2023/01/15 02:27:56;;;;;;;11.93;1.88;;;;;;;5.76;90.59;99792.94;6133108;23;20014;-76
2023/01/15 02:30:33;;;;;;;3.80;1.38;;;;;;;5.74;90.05;99797.91;6109076;23;20028;-76
2023/01/15 02:33:13;;;;;;;9.10;1.33;;;;;;;5.74;90.33;99805.84;6133135;23;20101;-76
2023/01/15 02:35:47;;;;;;;6.47;1.30;;;;;;;5.73;90.21;99807.75;6132479;23;20022;-76
2023/01/15 02:38:19;;;;;;;5.93;1.70;;;;;;;5.70;89.97;99809.34;6133292;23;20053;-76
2023/01/15 02:40:52;;;;;;;9.30;2.10;;;;;;;5.69;89.94;99810.50;6132411;23;20523;-76
2023/01/15 02:43:22;;;;;;;7.70;1.60;;;;;;;5.68;89.69;99810.94;6159752;23;20014;-77
2023/01/15 02:45:54;;;;;;;6.13;1.05;;;;;;;5.68;89.42;99810.94;6160151;23;20069;-77
2023/01/15 02:48:25;;;;;;;7.43;1.65;;;;;;;5.70;89.22;99824.44;6160092;23;20022;-76
2023/01/15 02:50:55;;;;;;;;;;;;;;;5.70;90.24;99808.59;6134452;23;20025;-77
2023/01/15 02:53:26;;;;;;;3.83;1.20;;;;;;;5.67;89.68;99810.19;6132380;23;20263;-76
2023/01/15 02:56:00;;;;;;;7.00;1.33;;;;;;;5.64;89.35;99805.03;6132478;23;20038;-77
2023/01/15 02:58:35;;;;;;;8.55;1.33;;;;;;;5.65;89.22;99801.22;6133085;23;20101;-77
2023/01/15 03:01:10;;;;;;;9.40;1.38;;;;;;;5.62;88.93;99808.09;6132326;23;20026;-76
2023/01/15 03:03:41;;;;;;;9.50;0.98;;;;;;;5.60;89.28;99799.13;6159153;23;20018;-77
2023/01/15 03:06:20;;;;;;;6.18;1.15;;;;;;;5.58;88.86;99802.22;6108604;23;20081;-77
2023/01/15 03:08:49;;;;;;;12.98;1.48;;;;;;;5.59;89.27;99797.69;6132897;23;20033;-76
2023/01/15 03:11:18;;;;;;;6.72;1.60;;;;;;;5.60;88.79;99793.84;6133026;23;20026;-76
2023/01/15 03:14:22;;;;;;;7.82;0.90;;;;;;;5.61;88.38;99800.59;6109857;23;20367;-76
2023/01/15 03:16:57;;;;;;;12.73;1.92;;;;;;;5.62;88.44;99800.16;6121988;23;20038;-76
2023/01/15 03:19:37;;;;;;;3.22;0.90;;;;;;;5.63;88.43;99783.16;6132624;23;20025;-76
2023/01/15 03:22:07;;;;;;;5.28;1.85;;;;;;;5.63;87.76;99803.56;6156486;23;20406;-76
2023/01/15 03:24:49;;;;;;;11.25;1.20;;;;;;;5.62;87.90;99808.09;6132645;23;20061;-76
2023/01/15 03:27:18;;;;;;;11.35;1.33;;;;;;;5.63;88.13;99799.00;6157599;23;20022;-76
2023/01/15 03:29:53;;;;;;;5.70;1.60;;;;;;;5.65;87.68;99801.22;6108743;23;20077;-76
2023/01/15 03:32:21;;;;;;;14.18;1.05;;;;;;;5.66;87.39;99800.06;6157728;23;20030;-76
2023/01/15 03:34:51;;;;;;;8.43;1.20;;;;;;;5.66;87.33;99800.78;6108236;23;20070;-76
2023/01/15 03:37:23;;;;;;;13.38;1.73;;;;;;;5.63;87.55;99799.00;6132091;23;20046;-76
2023/01/15 03:39:51;;;;;;;6.45;1.58;;;;;;;5.61;87.48;99787.41;6132071;23;20014;-76
2023/01/15 03:42:39;;;;;;;7.55;1.00;;;;;;;5.57;87.92;99784.91;6132798;23;20073;-76
2023/01/15 03:45:38;;;;;;;4.97;1.20;;;;;;;5.55;87.87;99787.22;6108933;23;20745;-76
2023/01/15 03:48:16;;;;;;;9.05;1.50;;;;;;;5.51;87.39;99799.06;6139338;23;20014;-76
2023/01/15 03:50:51;;;;;;;7.20;1.50;;;;;;;5.46;87.36;99802.97;6131891;23;20013;-75
2023/01/15 03:53:22;;;;;;;6.55;1.30;;;;;;;5.45;87.79;99793.59;6132842;23;20029;-76
2023/01/15 03:56:04;;;;;;;13.25;1.88;;;;;;;5.47;87.60;99796.53;6133272;23;20025;-76
2023/01/15 03:58:46;;;;;;;5.95;1.65;;;;;;;5.47;87.16;99791.25;6110457;23;20563;-76
2023/01/15 04:01:21;;;;;;;8.77;1.47;;;;;;;5.48;87.33;99792.75;6134289;23;20018;-76
2023/01/15 04:03:49;;;;;;;17.67;1.80;;;;;;;5.48;87.28;99795.38;6132302;23;20066;-76
2023/01/15 04:06:18;;;;;;;9.35;1.27;;;;;;;5.46;87.57;99784.50;6132135;23;20018;-75
2023/01/15 04:08:46;;;;;;;4.72;1.17;;;;;;;5.47;88.03;99787.88;6132569;23;20022;-76
2023/01/15 04:11:21;;;;;;;5.25;1.00;;;;;;;5.47;87.57;99779.97;6132295;23;20056;-76
2023/01/15 04:13:50;;;;;;;5.82;1.85;;;;;;;5.47;87.40;99785.97;6107657;23;20109;-76
2023/01/15 04:16:37;;;;;;;8.80;2.08;;;;;;;5.49;87.61;99781.00;6157604;23;20074;-76
2023/01/15 04:19:03;;;;;;;6.35;1.20;;;;;;;5.45;87.15;99783.03;6156342;23;20089;-75
2023/01/15 04:21:33;;;;;;;5.20;1.15;;;;;;;5.43;87.73;99787.25;6108574;23;20021;-76
2023/01/15 04:24:00;;;;;;;8.80;1.17;;;;;;;5.43;87.57;99797.81;6156539;23;20463;-76
2023/01/15 04:26:26;;;;;;;5.05;1.05;;;;;;;5.43;87.36;99788.00;6159082;23;20045;-76
2023/01/15 04:28:53;;;;;;;8.00;1.40;;;;;;;5.44;87.43;99789.47;6131837;23;20024;-76
2023/01/15 04:31:20;;;;;;;8.90;1.60;;;;;;;5.44;88.00;99784.19;6158753;23;20014;-76
2023/01/15 04:33:46;;;;;;;11.88;1.60;;;;;;;5.44;87.92;99786.09;6131866;23;20070;-76
2023/01/15 04:36:13;;;;;;;6.40;1.35;;;;;;;5.45;87.69;99779.66;6157327;23;20421;-76
2023/01/15 04:38:40;;;;;;;11.70;1.35;;;;;;;5.45;87.64;99779.66;6132574;23;20441;-76
2023/01/15 04:44:07;;;;;;;15.57;1.98;;;;;;;5.43;87.76;99776.69;6158226;23;20470;-76
2023/01/15 04:46:42;;;;;;;8.75;0.98;;;;;;;5.41;87.32;99779.03;6132517;23;20411;-76
2023/01/15 04:49:15;;;;;;;8.32;1.17;;;;;;;5.41;87.36;99782.41;6157719;23;20014;-76
2023/01/15 04:51:42;;;;;;;5.30;0.73;;;;;;;5.38;87.59;99787.78;6158545;23;20014;-76
2023/01/15 04:54:10;;;;;;;4.20;1.05;;;;;;;5.36;87.32;99777.66;6158097;23;20511;-76
2023/01/15 04:56:39;;;;;;;5.97;1.05;;;;;;;5.35;87.06;99786.75;6133094;23;20025;-76
2023/01/15 04:59:06;;;;;;;9.48;1.60;;;;;;;5.35;87.10;99789.38;6159622;23;20045;-76
2023/01/15 05:01:33;;;;;;;10.02;1.63;;;;;;;5.33;87.42;99786.44;6160029;23;20432;-76
2023/01/15 05:04:00;;;;;;;5.65;1.35;;;;;;;5.31;87.19;99780.84;6108250;23;20022;-76
2023/01/15 05:06:27;;;;;;;9.32;1.17;;;;;;;5.30;87.66;99780.09;6133704;23;20415;-77
2023/01/15 05:08:54;;;;;;;6.90;1.27;;;;;;;5.30;87.73;99780.09;6133416;23;20018;-76
2023/01/15 05:11:20;;;;;;;3.50;1.20;;;;;;;5.31;87.60;99791.41;6133941;23;20014;-76
2023/01/15 05:13:47;;;;;;;6.22;1.30;;;;;;;5.32;87.49;99780.41;6158155;23;20018;-76
2023/01/15 05:16:17;;;;;;;7.60;1.25;;;;;;;5.32;87.48;99788.34;6160031;23;20014;-76
2023/01/15 05:18:46;;;;;;;7.63;1.50;;;;;;;5.31;87.24;99780.84;6159003;23;20479;-76
2023/01/15 05:21:33;;;;;;;9.65;1.58;;;;;;;5.33;87.82;99778.50;6158937;23;20018;-76
2023/01/15 05:24:02;;;;;;;8.00;2.03;;;;;;;5.32;87.85;99780.41;6159616;23;20056;-76
2023/01/15 05:26:30;;;;;;;9.75;2.10;;;;;;;5.33;87.89;99770.59;6109188;23;20026;-76
2023/01/15 05:28:58;;;;;;;5.18;1.52;;;;;;;5.32;88.06;99767.22;6132698;23;20014;-76
2023/01/15 05:31:26;;;;;;;6.10;1.52;;;;;;;5.33;88.00;99773.22;6132956;23;20376;-77
2023/01/15 05:33:54;;;;;;;11.00;1.80;;;;;;;5.31;87.78;99770.28;6132335;23;20026;-76
2023/01/15 05:36:22;;;;;;;5.43;1.23;;;;;;;5.28;88.54;99773.78;6159569;23;20018;-76
2023/01/15 05:38:49;;;;;;;8.30;0.98;;;;;;;5.26;88.72;99768.19;6159238;23;20073;-76
2023/01/15 05:44:06;;;;;;;6.85;1.38;;;;;;;5.21;88.91;99761.53;6159606;23;20074;-77
2023/01/15 05:46:34;;;;;;;6.63;0.93;;;;;;;5.19;89.04;99760.50;6159007;23;20014;-77
2023/01/15 05:49:05;;;;;;;7.68;1.10;;;;;;;5.18;88.94;99759.78;6157910;23;20471;-77
2023/01/15 05:51:34;;;;;;;4.80;0.93;;;;;;;5.16;89.07;99762.09;6159516;23;20065;-76
2023/01/15 05:54:02;;;;;;;6.95;1.42;;;;;;;5.15;88.85;99768.53;6159034;23;20018;-76
2023/01/15 05:56:29;;;;;;;6.85;1.55;;;;;;;5.14;88.96;99769.69;6159895;23;20025;-76
2023/01/15 05:58:55;;;;;;;7.38;2.58;;;;;;;5.13;88.66;99775.41;6108493;23;20368;-76
2023/01/15 06:01:22;;;;;;;9.07;1.55;;;;;;;5.12;88.45;99771.28;6132772;23;20021;-76
2023/01/15 06:03:48;;;;;;;3.70;1.33;;;;;;;5.10;88.84;99776.25;6159136;23;20021;-76
2023/01/15 06:06:17;;;;;;;9.30;1.70;;;;;;;5.08;88.61;99779.31;6158231;23;20419;-77
2023/01/15 06:08:47;;;;;;;4.25;1.05;;;;;;;5.09;88.56;99772.88;6159470;23;20073;-77
2023/01/15 06:11:14;;;;;;;2.60;1.30;;;;;;;5.07;88.90;99777.84;6109086;23;20022;-76
2023/01/15 06:13:40;;;;;;;4.82;1.20;;;;;;;5.08;88.92;99770.66;6157655;23;20026;-76
2023/01/15 06:16:09;;;;;;;7.15;1.27;;;;;;;5.09;89.27;99753.66;6108125;23;20088;-76
2023/01/15 06:18:40;;;;;;;3.55;0.80;;;;;;;5.07;89.43;99769.91;6132999;23;20042;-76
2023/01/15 06:21:08;;;;;;;5.95;1.20;;;;;;;5.05;89.78;99785.44;6133029;23;20424;-77
2023/01/15 06:23:35;;;;;;;6.95;1.25;;;;;;;5.00;89.89;99781.44;6159227;23;20025;-76
2023/01/15 06:26:04;;;;;;;5.55;0.88;;;;;;;4.96;90.03;99798.53;6159385;23;20021;-77
2023/01/15 06:28:32;;;;;;;9.05;1.33;;;;;;;4.90;90.18;99798.31;6159602;23;20014;-76
2023/01/15 06:30:58;;;;;;;7.82;1.10;;;;;;;4.85;89.66;99806.00;6158638;23;20034;-76
2023/01/15 06:33:25;;;;;;;4.72;1.05;;;;;;;4.79;89.45;99808.44;6159798;23;20022;-77
2023/01/15 06:35:51;;;;;;;4.95;1.00;;;;;;;4.72;88.83;99811.28;6157151;23;20066;-77
2023/01/15 06:38:18;;;;;;;3.75;1.00;;;;;;;4.67;88.08;99803.91;6159695;23;20018;-76
2023/01/15 06:40:45;;;;;;;5.80;1.20;;;;;;;4.61;88.40;99797.69;6133183;23;20024;-77
2023/01/15 06:48:42;;;;;;;7.25;1.25;;;;;;;4.41;88.80;99800.47;6159285;23;20016;-79
2023/01/15 06:51:12;;;;;;;7.18;0.93;;;;;;;4.38;88.73;99797.97;6158997;23;20018;-78
2023/01/15 06:53:38;;;;;;;5.60;1.30;;;;;;;4.34;89.09;99790.91;6157150;23;20022;-78
2023/01/15 06:56:05;;;;;;;8.68;1.23;;;;;;;4.31;89.26;99793.63;6132277;23;20046;-78
2023/01/15 06:58:31;;;;;;;11.57;1.48;;;;;;;4.27;90.08;99791.09;6158912;23;20512;-78
2023/01/15 07:00:58;;;;;;;9.18;1.00;;;;;;;4.23;90.36;99781.81;6158622;23;20445;-78
2023/01/15 07:03:24;;;;;;;8.43;1.25;;;;;;;4.19;90.86;99789.81;6159445;23;20018;-78
2023/01/15 07:05:51;;;;;;;5.60;1.27;;;;;;;4.16;91.29;99792.53;6156933;23;20021;-79
2023/01/15 07:08:17;;;;;;;4.93;1.23;;;;;;;4.15;91.23;99791.78;6159608;23;20034;-78
2023/01/15 07:10:44;;;;;;;4.13;1.33;;;;;;;4.17;91.42;99786.84;6157302;23;20021;-76
2023/01/15 07:13:10;;;;;;;18.02;1.88;;;;;;;4.18;91.58;99796.22;6158132;23;20401;-76
2023/01/15 07:15:38;;;;;;;4.60;1.05;;;;;;;4.19;91.64;99800.34;6158540;23;20021;-76
2023/01/15 07:18:05;;;;;;;6.38;1.00;;;;;;;4.15;91.64;99797.06;6159166;23;20077;-77
2023/01/15 07:20:31;;;;;;;5.07;1.40;;;;;;;4.16;91.33;99792.53;6159510;23;20014;-77
2023/01/15 07:22:58;;;;;;;4.53;1.10;;;;;;;4.12;91.25;99795.25;6158561;23;20033;-77
2023/01/15 07:25:24;;;;;;;6.72;1.75;;;;;;;4.10;90.76;99784.41;6159506;23;20014;-77
2023/01/15 07:27:51;;;;;;;4.93;1.10;;;;;;;4.10;91.10;99797.56;6157911;23;20024;-77
2023/01/15 07:30:17;;;;;;;12.13;1.30;;;;;;;4.09;90.72;99803.25;6159319;23;20014;-77
2023/01/15 07:32:44;;;;;;;5.85;1.15;;;;;;;4.08;90.29;99797.25;6158637;23;20428;-77
2023/01/15 07:35:10;;;;;;;2.80;1.10;;;;;;;4.08;89.76;99793.88;6157238;23;20029;-77
2023/01/15 07:37:38;;;;;;;10.88;1.48;;;;;;;4.08;89.34;99793.88;6159099;23;20018;-77
2023/01/15 07:40:05;;;;;;;4.47;0.98;;;;;;;4.08;89.52;99786.72;6156770;23;20049;-77
2023/01/15 07:50:47;;;;;;;10.85;1.20;;;;;;;4.13;88.67;99798.63;6159450;23;20025;-76
2023/01/15 07:53:14;;;;;;;6.20;1.02;;;;;;;4.12;88.73;99792.63;6132784;23;20500;-77
2023/01/15 07:55:40;;;;;;;7.45;1.10;;;;;;;4.10;88.27;99789.69;6158497;23;20444;-77
2023/01/15 07:58:07;;;;;;;6.32;1.33;;;;;;;4.09;88.07;99780.28;6131323;23;20552;-77
2023/01/15 08:00:34;;;;;;;4.65;1.27;;;;;;;4.08;87.60;99781.44;6158597;23;20025;-77
2023/01/15 08:03:02;;;;;;;5.80;0.90;;;;;;;4.08;87.12;99784.09;6132040;23;20481;-77
2023/01/15 08:05:28;;;;;;;4.03;1.55;;;;;;;4.11;87.43;99785.16;6132973;23;20448;-77
2023/01/15 08:07:55;;;;;;;4.95;1.20;;;;;;;4.13;87.24;99790.75;6158129;23;20018;-77
2023/01/15 08:10:22;;;;;;;8.07;1.60;;;;;;;4.15;86.74;99783.16;6158618;23;20122;-77
2023/01/15 08:15:40;;;;;;;5.05;1.42;;;;;;;4.21;86.30;99786.75;6159397;23;20013;-78
2023/01/15 08:18:06;;;;;;;8.57;1.70;;;;;;;4.23;86.44;99792.34;6159403;23;20507;-77
2023/01/15 08:20:34;;;;;;;15.82;1.60;;;;;;;4.25;86.10;99787.41;6132985;23;20238;-78
2023/01/15 08:23:01;;;;;;;6.20;1.10;;;;;;;4.26;86.06;99794.16;6158578;23;20525;-78
2023/01/15 08:25:27;;;;;;;1.77;1.00;;;;;;;4.25;86.08;99788.13;6158665;23;20014;-78
2023/01/15 08:27:54;;;;;;;5.22;1.20;;;;;;;4.26;86.43;99796.78;6157882;23;20471;-78
2023/01/15 08:30:24;;;;;;;5.97;1.15;;;;;;;4.27;86.19;99785.81;6159542;23;20014;-77
2023/01/15 08:32:51;;;;;;;8.23;1.63;;;;;;;4.30;86.38;99786.88;6132436;23;20044;-78
2023/01/15 08:35:17;;;;;;;4.00;1.25;;;;;;;4.32;86.13;99787.94;6132829;23;20044;-77
2023/01/15 08:37:44;;;;;;;4.95;1.25;;;;;;;4.35;86.37;99786.38;6159680;23;20117;-77
2023/01/15 08:40:11;;;;;;;11.70;2.15;;;;;;;4.40;85.81;99796.38;6158744;23;20018;-76
2023/01/15 08:42:38;;;;;;;10.13;1.90;;;;;;;4.45;85.75;99789.84;6159449;23;20022;-77
2023/01/15 08:45:06;;;;;;;3.70;1.10;;;;;;;4.52;85.17;99781.75;6132409;23;20022;-76
2023/01/15 08:47:32;;;;;;;7.05;1.40;;;;;;;4.61;85.00;99792.41;6159362;23;20069;-77
2023/01/15 08:49:59;;;;;;;4.57;1.38;;;;;;;4.70;84.61;99771.44;6159239;23;20081;-78
2023/01/15 08:52:25;;;;;;;3.53;1.08;;;;;;;4.79;84.37;99783.97;6159303;23;20085;-78
2023/01/15 08:54:52;;;;;;;9.00;1.38;;;;;;;4.82;84.06;99772.56;6158075;23;20050;-78
2023/01/15 08:57:18;;;;;;;7.25;1.30;;;;;;;4.83;84.29;99779.31;6159567;23;20022;-78
2023/01/15 08:59:46;;;;;;;6.63;1.42;;;;;;;4.87;84.61;99772.03;6159564;23;20013;-78
2023/01/15 09:02:14;;;;;;;7.57;1.15;;;;;;;4.93;85.13;99771.09;6158991;23;20444;-75
2023/01/15 09:04:41;;;;;;;5.65;1.38;;;;;;;5.01;85.11;99769.72;6159457;23;20014;-77
2023/01/15 09:07:07;;;;;;;7.07;1.10;;;;;;;5.06;85.19;99773.72;6157117;23;20018;-77
2023/01/15 09:09:34;;;;;;;4.32;1.00;;;;;;;5.08;84.69;99781.22;6158539;23;20475;-78
2023/01/15 09:12:00;;;;;;;4.00;1.70;;;;;;;5.10;84.90;99776.25;6158706;23;20022;-77
2023/01/15 09:14:27;;;;;;;9.07;2.17;;;;;;;5.11;85.26;99788.28;6159086;23;20371;-78
2023/01/15 09:17:13;;;;;;;11.23;2.05;;;;;;;5.10;85.16;99786.81;6159381;23;20046;-78
2023/01/15 09:19:40;;;;;;;6.45;1.40;;;;;;;5.11;85.28;99790.91;6159279;23;20428;-79
2023/01/15 09:22:07;;;;;;;4.85;1.60;;;;;;;5.15;85.21;99786.28;6130860;23;20026;-77
2023/01/15 09:24:33;;;;;;;8.02;0.95;;;;;;;5.20;85.17;99788.38;6158091;23;20077;-78
2023/01/15 09:27:01;;;;;;;6.32;1.35;;;;;;;5.27;84.48;99788.88;6158587;23;20455;-77
2023/01/15 09:29:27;;;;;;;9.45;1.50;;;;;;;5.33;84.68;99786.44;6158676;23;20056;-77
2023/01/15 09:31:54;;;;;;;4.10;1.15;;;;;;;5.42;84.31;99786.53;6132018;23;20435;-78
2023/01/15 09:34:20;;;;;;;3.85;0.90;;;;;;;5.50;83.64;99779.09;6132710;23;20029;-77
2023/01/15 09:36:47;;;;;;;7.63;1.48;;;;;;;5.59;83.42;99777.28;6158987;23;20066;-77
2023/01/15 09:39:13;;;;;;;10.20;1.30;;;;;;;5.65;83.26;99772.91;6159094;23;20448;-77
2023/01/15 09:42:04;;;;;;;9.27;1.13;;;;;;;5.73;83.43;99776.06;6160095;23;20445;-77
2023/01/15 09:44:39;;;;;;;5.93;1.50;;;;;;;5.75;83.48;99783.56;6133806;23;20459;-77
2023/01/15 09:47:18;;;;;;;6.05;1.10;;;;;;;5.75;83.09;99786.94;6160086;23;20018;-77
2023/01/15 09:50:03;;;;;;;7.93;1.15;;;;;;;5.78;83.43;99780.06;6160168;23;20452;-77
2023/01/15 09:52:35;;;;;;;12.13;1.92;;;;;;;5.80;82.61;99777.72;6159627;23;20022;-77
2023/01/15 09:55:08;;;;;;;8.75;1.27;;;;;;;5.78;82.65;99774.78;6159976;23;20018;-75
2023/01/15 09:57:36;;;;;;;4.63;1.20;;;;;;;5.79;82.66;99777.00;6159862;23;20021;-78
2023/01/15 10:00:05;;;;;;;7.38;1.13;;;;;;;5.75;81.82;99784.28;6159665;23;20494;-78
2023/01/15 10:02:57;;;;;;;2.28;0.80;;;;;;;5.75;82.49;99775.63;6160022;23;20041;-78
2023/01/15 10:05:29;;;;;;;10.00;1.83;;;;;;;5.75;82.54;99786.94;6134036;23;20048;-78
2023/01/15 10:08:02;;;;;;;36.90;1.75;;;;;;;5.80;82.04;99785.66;6159288;23;20018;-78
2023/01/15 10:10:58;;;;;;;6.75;1.35;;;;;;;5.88;82.52;99784.25;6159954;23;20069;-77
2023/01/15 10:13:40;;;;;;;5.18;1.33;;;;;;;6.01;81.99;99788.31;6159934;23;20018;-77
2023/01/15 10:16:09;;;;;;;12.45;1.50;;;;;;;6.21;80.63;99774.78;6159786;23;20018;-79
2023/01/15 10:18:36;;;;;;;5.70;1.42;;;;;;;6.29;80.60;99775.28;6159820;23;20093;-78
2023/01/15 10:21:12;;;;;;;13.70;1.80;;;;;;;6.47;79.79;99764.78;6133083;23;20014;-78
2023/01/15 10:24:10;;;;;;;6.95;1.23;;;;;;;6.61;80.63;99784.69;6158379;23;20026;-77
2023/01/15 10:26:45;;;;;;;9.70;1.70;;;;;;;6.83;79.80;99776.66;6159849;23;20022;-77
2023/01/15 10:29:38;;;;;;;5.70;1.23;;;;;;;6.95;79.67;99781.84;6159512;23;20076;-76
2023/01/15 10:32:58;;;;;;;3.75;1.13;;;;;;;7.02;79.30;99788.78;6159381;23;20021;-76
2023/01/15 10:35:31;;;;;;;3.58;1.08;;;;;;;6.96;78.46;99780.69;6097943;23;20524;-76
2023/01/15 10:37:58;;;;;;;7.82;1.23;;;;;;;6.86;78.39;99791.66;6096276;23;20023;-78
2023/01/15 10:40:42;;;;;;;11.82;1.98;;;;;;;6.71;78.56;99790.75;6098079;23;20026;-78
2023/01/15 10:43:33;;;;;;;5.65;1.48;;;;;;;6.67;78.98;99799.53;6097474;23;20425;-77
2023/01/15 10:46:02;;;;;;;8.43;1.30;;;;;;;6.59;79.15;99800.97;6097921;23;20027;-76
2023/01/15 10:48:37;;;;;;;7.78;1.90;;;;;;;6.55;79.06;99800.38;6098231;23;20023;-76
2023/01/15 10:51:15;;;;;;;4.10;1.60;;;;;;;6.57;80.06;99797.28;6097944;23;20457;-77
2023/01/15 10:54:00;;;;;;;5.70;1.23;;;;;;;6.61;79.53;99795.25;6098031;23;20023;-78
2023/01/15 10:56:36;;;;;;;8.38;1.17;;;;;;;6.63;79.20;99800.84;6098058;23;20456;-77
2023/01/15 10:59:21;;;;;;;3.90;1.23;;;;;;;6.59;78.65;99798.34;6098054;23;20019;-76
2023/01/15 11:01:52;;;;;;;6.93;1.50;;;;;;;6.59;78.11;99800.25;6098661;23;20023;-77
2023/01/15 11:04:19;;;;;;;;;;;;;;;6.63;80.87;99803.50;6098819;23;20027;-77
2023/01/15 11:06:46;;;;;;;9.68;1.90;;;;;;;6.70;78.71;99808.53;6097921;23;19949;-78
2023/01/15 11:09:21;;;;;;;8.75;1.20;;;;;;;6.80;78.15;99782.84;6121250;23;20081;-76
2023/01/15 11:20:29;;;;;;;8.93;1.75;;;;;;;6.69;78.41;99785.88;6159396;23;20014;-77
2023/01/15 11:23:04;;;;;;;2.67;1.17;;;;;;;6.67;77.81;99780.28;6159960;23;20018;-77
2023/01/15 11:25:32;;;;;;;8.35;1.67;;;;;;;6.66;78.14;99781.47;6133632;23;20024;-75
2023/01/15 11:28:02;;;;;;;13.18;2.97;;;;;;;6.66;78.13;99792.03;6159338;23;20022;-76
2023/01/15 11:30:31;;;;;;;5.35;1.35;;;;;;;6.65;78.54;99793.22;6159885;23;20018;-76
2023/01/15 11:33:02;;;;;;;5.90;1.20;;;;;;;6.67;78.67;99796.91;6159538;23;20099;-77
2023/01/15 11:35:30;;;;;;;11.15;2.03;;;;;;;6.66;78.37;99798.06;6159732;23;20021;-76
2023/01/15 11:38:05;;;;;;;8.55;1.70;;;;;;;6.60;79.20;99815.66;6159638;23;20456;-77
2023/01/15 11:40:32;;;;;;;5.30;1.70;;;;;;;6.59;79.89;99824.03;6160200;23;20444;-77
2023/01/15 11:51:47;;;;;;;6.30;1.27;;;;;;;6.55;80.63;99795.06;6069196;23;20019;-78
2023/01/15 11:54:15;;;;;;;9.60;3.90;;;;;;;6.53;80.42;99800.06;6044832;23;20023;-76
2023/01/15 11:56:44;;;;;;;7.53;1.90;;;;;;;6.49;80.34;99809.28;6069304;23;20039;-76
2023/01/15 11:59:14;;;;;;;9.40;1.80;;;;;;;6.50;80.89;99803.56;6068766;23;20450;-76
2023/01/15 12:01:56;;;;;;;7.28;1.63;;;;;;;6.54;81.07;99798.16;6044342;23;20027;-76
2023/01/15 12:04:48;;;;;;;6.63;1.50;;;;;;;6.53;81.43;99799.31;6067530;23;20458;-76
2023/01/15 12:07:15;;;;;;;5.72;1.38;;;;;;;6.51;81.79;99796.38;6045305;23;20026;-75
2023/01/15 12:10:09;;;;;;;5.03;1.73;;;;;;;6.52;82.02;99790.66;6068605;23;20083;-76
2023/01/15 12:12:45;;;;;;;6.07;1.40;;;;;;;6.54;82.37;99782.28;6069075;23;20027;-75
2023/01/15 12:15:26;;;;;;;9.38;1.90;;;;;;;6.55;82.43;99791.69;6068542;23;20433;-76
2023/01/15 12:17:52;;;;;;;5.22;1.02;;;;;;;6.50;83.03;99793.00;6149946;23;20456;-76
2023/01/15 12:20:50;;;;;;;7.07;1.65;;;;;;;6.41;84.59;99798.22;6159660;23;20022;-75
2023/01/15 12:23:35;;;;;;;5.35;1.55;;;;;;;6.35;85.37;99792.78;6159592;23;20025;-75
2023/01/15 12:26:16;;;;;;;5.60;1.30;;;;;;;6.24;86.21;99797.72;6159222;23;20037;-76
2023/01/15 12:28:56;;;;;;;5.17;1.30;;;;;;;6.09;87.66;99801.28;6159801;23;20022;-76
2023/01/15 12:31:32;;;;;;;4.20;1.20;;;;;;;5.93;88.53;99781.09;6159731;23;20466;-76
2023/01/15 12:34:31;;;;;;;6.80;1.40;;;;;;;5.86;89.85;99805.06;6158674;23;20018;-77
2023/01/15 12:37:22;;;;;;;3.53;1.40;;;;;;;5.87;90.72;99791.44;6127471;23;20026;-76
2023/01/15 12:40:02;;;;;;;4.65;1.25;;;;;;;5.89;91.40;99806.88;6159104;23;20025;-76
2023/01/15 12:45:20;;;;;;;5.53;1.30;;;;;;;5.87;92.51;99801.25;6159569;23;20028;-76
2023/01/15 12:48:04;;;;;;;6.60;1.70;;;;;;;5.80;92.29;99798.84;6158997;23;20014;-76
2023/01/15 12:50:30;;;;;;;6.18;1.75;;;;;;;5.73;92.82;99812.28;6159431;23;20014;-76